createdAt,value
2018-06-04T00:00:23.325Z,36.70
2018-06-04T00:01:23.310Z,37.00
2018-06-04T00:02:23.297Z,36.60
2018-06-04T00:03:23.289Z,35.40
2018-06-04T00:04:23.270Z,37.80
2018-06-04T00:05:23.264Z,37.60
2018-06-04T00:06:56.454Z,36.20
2018-06-04T00:07:23.230Z,37.80
2018-06-04T00:08:23.217Z,35.30
2018-06-04T00:09:23.202Z,37.10
2018-06-04T00:10:23.191Z,34.30
2018-06-04T00:11:23.177Z,35.80
2018-06-04T00:12:23.171Z,36.40
2018-06-04T00:13:23.300Z,33.70
2018-06-04T00:14:23.136Z,37.10
2018-06-04T00:15:23.123Z,36.50
2018-06-04T00:16:23.110Z,35.00
2018-06-04T00:17:23.096Z,36.70
2018-06-04T00:18:23.084Z,38.70
2018-06-04T00:19:23.070Z,36.30
2018-06-04T00:20:23.056Z,35.50
2018-06-04T00:21:23.044Z,39.10
2018-06-04T00:22:23.032Z,37.20
2018-06-04T00:23:23.017Z,37.00
2018-06-04T00:24:23.003Z,37.50
2018-06-04T00:25:22.987Z,39.50
2018-06-04T00:26:22.974Z,36.20
2018-06-04T00:27:22.962Z,36.70
2018-06-04T00:28:22.955Z,38.70
2018-06-04T00:29:22.934Z,37.80
2018-06-04T00:30:22.920Z,38.40
2018-06-04T00:31:22.918Z,35.40
2018-06-04T00:32:22.941Z,36.40
2018-06-04T00:33:22.886Z,36.70
2018-06-04T00:34:22.867Z,39.20
2018-06-04T00:35:22.856Z,39.10
2018-06-04T00:36:22.841Z,39.10
2018-06-04T00:37:22.831Z,37.10
2018-06-04T00:38:22.811Z,40.70
2018-06-04T00:39:22.800Z,39.70
2018-06-04T00:40:22.799Z,39.40
2018-06-04T00:41:22.771Z,41.90
2018-06-04T00:42:22.757Z,37.20
2018-06-04T00:43:22.746Z,42.90
2018-06-04T00:44:22.731Z,41.20
2018-06-04T00:45:22.718Z,47.00
2018-06-04T00:46:22.703Z,44.70
2018-06-04T00:47:22.691Z,42.90
2018-06-04T00:48:22.678Z,50.50
2018-06-04T00:49:22.663Z,40.20
2018-06-04T00:50:22.699Z,43.10
2018-06-04T00:51:22.636Z,43.60
2018-06-04T00:52:22.631Z,44.10
2018-06-04T00:53:22.616Z,43.90
2018-06-04T00:54:22.597Z,45.50
2018-06-04T00:55:22.583Z,43.90
2018-06-04T00:56:22.570Z,45.70
2018-06-04T00:57:22.552Z,44.40
2018-06-04T00:58:22.541Z,46.30
2018-06-04T00:59:22.531Z,43.60
2018-06-04T01:00:22.514Z,44.40
2018-06-04T01:01:22.499Z,44.40
2018-06-04T01:02:22.485Z,46.30
2018-06-04T01:03:22.482Z,49.50
2018-06-04T01:04:22.461Z,48.10
2018-06-04T01:05:22.548Z,52.40
2018-06-04T01:06:22.433Z,51.90
2018-06-04T01:07:22.419Z,51.90
2018-06-04T01:08:22.406Z,47.30
2018-06-04T01:09:22.409Z,51.60
2018-06-04T01:10:22.377Z,46.80
2018-06-04T01:11:22.364Z,48.50
2018-06-04T01:12:22.352Z,47.30
2018-06-04T01:13:22.336Z,47.80
2018-06-04T01:14:22.323Z,55.60
2018-06-04T01:15:22.312Z,47.80
2018-06-04T01:16:22.298Z,51.50
2018-06-04T01:17:22.333Z,54.20
2018-06-04T01:18:22.272Z,54.00
2018-06-04T01:19:22.256Z,51.30
2018-06-04T01:20:22.241Z,51.10
2018-06-04T01:21:22.228Z,52.30
2018-06-04T01:22:22.215Z,54.10
2018-06-04T01:23:22.209Z,50.00
2018-06-04T01:24:22.185Z,46.50
2018-06-04T01:25:22.175Z,49.20
2018-06-04T01:26:22.158Z,50.80
2018-06-04T01:27:22.145Z,50.80
2018-06-04T01:28:22.132Z,52.90
2018-06-04T01:29:22.118Z,50.80
2018-06-04T01:30:22.113Z,53.10
2018-06-04T01:31:22.092Z,48.70
2018-06-04T01:32:22.078Z,52.60
2018-06-04T01:33:22.063Z,51.70
2018-06-04T01:34:22.048Z,54.20
2018-06-04T01:35:22.035Z,50.70
2018-06-04T01:36:22.022Z,51.40
2018-06-04T01:37:22.006Z,50.00
2018-06-04T01:38:21.998Z,49.60
2018-06-04T01:39:21.979Z,48.10
2018-06-04T01:40:21.966Z,46.60
2018-06-04T01:41:21.956Z,48.90
2018-06-04T01:42:21.942Z,49.30
2018-06-04T01:43:21.925Z,47.40
2018-06-04T01:44:21.912Z,45.90
2018-06-04T01:45:21.896Z,48.20
2018-06-04T01:46:21.891Z,49.30
2018-06-04T01:47:21.872Z,54.70
2018-06-04T01:48:21.860Z,54.80
2018-06-04T01:49:21.844Z,50.30
2018-06-04T01:50:21.828Z,52.00
2018-06-04T01:51:21.820Z,48.90
2018-06-04T01:52:21.803Z,50.20
2018-06-04T01:53:21.787Z,47.70
2018-06-04T01:54:21.772Z,52.70
2018-06-04T01:55:21.763Z,50.70
2018-06-04T01:56:21.747Z,49.30
2018-06-04T01:57:21.731Z,48.20
2018-06-04T01:58:21.719Z,49.30
2018-06-04T01:59:21.705Z,53.10
2018-06-04T02:00:21.693Z,50.40
2018-06-04T02:01:21.677Z,50.20
2018-06-04T02:02:21.663Z,48.00
2018-06-04T02:03:21.649Z,48.40
2018-06-04T02:04:21.638Z,48.80
2018-06-04T02:06:30.709Z,50.50
2018-06-04T02:07:28.011Z,52.90
2018-06-04T02:08:27.999Z,48.90
2018-06-04T02:09:27.987Z,54.00
2018-06-04T02:10:27.969Z,52.20
2018-06-04T02:11:28.004Z,50.90
2018-06-04T02:12:27.940Z,49.90
2018-06-04T02:13:27.926Z,48.30
2018-06-04T02:14:27.931Z,49.00
2018-06-04T02:15:27.898Z,52.00
2018-06-04T02:16:27.882Z,48.90
2018-06-04T02:17:27.870Z,51.30
2018-06-04T02:18:27.859Z,49.80
2018-06-04T02:19:27.847Z,51.50
2018-06-04T02:20:27.827Z,51.50
2018-06-04T02:21:27.814Z,52.60
2018-06-04T02:22:27.799Z,49.80
2018-06-04T02:23:27.784Z,49.70
2018-06-04T02:24:27.769Z,54.60
2018-06-04T02:25:27.756Z,54.00
2018-06-04T02:26:30.886Z,58.20
2018-06-04T02:27:27.727Z,53.60
2018-06-04T02:28:27.712Z,51.50
2018-06-04T02:29:27.700Z,55.80
2018-06-04T02:30:28.293Z,56.00
2018-06-04T02:31:27.670Z,55.20
2018-06-04T02:33:20.624Z,54.70
2018-06-04T02:34:16.777Z,54.30
2018-06-04T02:35:20.392Z,53.20
2018-06-04T02:36:18.170Z,53.90
2018-06-04T02:37:16.732Z,58.10
2018-06-04T02:38:16.715Z,57.20
2018-06-04T02:39:16.702Z,54.60
2018-06-04T02:40:16.688Z,55.20
2018-06-04T02:41:19.902Z,55.30
2018-06-04T02:42:17.266Z,54.90
2018-06-04T02:44:26.110Z,57.00
2018-06-04T02:45:26.168Z,54.20
2018-06-04T02:46:26.078Z,58.70
2018-06-04T02:47:26.265Z,58.90
2018-06-04T02:49:10.224Z,55.00
2018-06-04T02:50:10.382Z,55.90
2018-06-04T02:51:14.239Z,59.40
2018-06-04T03:00:21.439Z,61.80
2018-06-04T03:01:21.463Z,59.90
2018-06-04T03:02:21.407Z,60.80
2018-06-04T03:03:21.394Z,60.50
2018-06-04T03:05:20.582Z,64.60
2018-06-04T03:06:20.563Z,58.10
2018-06-04T03:07:23.774Z,58.70
2018-06-04T03:08:23.758Z,55.20
2018-06-04T03:09:20.516Z,58.20
2018-06-04T03:10:23.733Z,60.60
2018-06-04T03:11:20.486Z,60.30
2018-06-04T03:12:20.473Z,57.00
2018-06-04T03:13:20.456Z,56.50
2018-06-04T03:14:20.440Z,53.40
2018-06-04T03:16:19.930Z,58.50
2018-06-04T03:17:19.913Z,63.60
2018-06-04T03:18:19.906Z,62.10
2018-06-04T03:19:19.882Z,66.60
2018-06-04T03:20:19.866Z,66.00
2018-06-04T03:21:19.852Z,66.10
2018-06-04T03:22:19.839Z,67.50
2018-06-04T03:23:23.254Z,62.20
2018-06-04T03:25:27.747Z,64.50
2018-06-04T03:26:24.097Z,69.60
2018-06-04T03:27:24.084Z,66.50
2018-06-04T03:28:24.068Z,65.00
2018-06-04T03:29:24.054Z,69.00
2018-06-04T03:30:24.038Z,68.70
2018-06-04T03:31:24.025Z,68.50
2018-06-04T03:32:57.228Z,67.50
2018-06-04T03:33:23.995Z,66.30
2018-06-04T03:34:23.988Z,68.00
2018-06-04T03:35:23.964Z,67.50
2018-06-04T03:36:23.955Z,66.80
2018-06-04T03:37:23.937Z,70.10
2018-06-04T03:38:23.922Z,69.80
2018-06-04T03:39:23.907Z,66.60
2018-06-04T03:40:23.892Z,69.00
2018-06-04T03:41:23.887Z,64.10
2018-06-04T03:42:57.082Z,67.30
2018-06-04T03:43:23.851Z,68.00
2018-06-04T03:44:23.853Z,70.60
2018-06-04T03:45:23.829Z,70.80
2018-06-04T03:46:23.807Z,66.30
2018-06-04T03:47:23.793Z,66.50
2018-06-04T03:48:23.781Z,65.70
2018-06-04T03:49:23.765Z,69.90
2018-06-04T03:50:23.759Z,68.10
2018-06-04T03:51:23.735Z,66.90
2018-06-04T03:52:23.720Z,68.10
2018-06-04T03:53:23.707Z,70.50
2018-06-04T03:54:23.720Z,69.30
2018-06-04T03:55:23.678Z,66.80
2018-06-04T03:56:23.669Z,68.50
2018-06-04T03:57:23.650Z,72.20
2018-06-04T03:58:23.638Z,71.70
2018-06-04T03:59:23.623Z,69.20
2018-06-04T04:00:23.608Z,64.40
2018-06-04T04:01:23.595Z,67.80
2018-06-04T04:02:23.580Z,67.20
2018-06-04T04:03:23.567Z,61.30
2018-06-04T04:04:23.550Z,67.60
2018-06-04T04:05:23.537Z,69.10
2018-06-04T04:06:23.522Z,64.80
2018-06-04T04:07:23.509Z,65.50
2018-06-04T04:08:23.516Z,63.70
2018-06-04T04:09:23.530Z,61.80
2018-06-04T04:10:23.466Z,62.80
2018-06-04T04:11:23.455Z,64.90
2018-06-04T04:12:23.489Z,65.70
2018-06-04T04:13:23.425Z,64.40
2018-06-04T04:14:23.409Z,67.30
2018-06-04T04:15:23.400Z,70.20
2018-06-04T04:16:23.383Z,63.90
2018-06-04T04:17:23.370Z,71.80
2018-06-04T04:18:23.364Z,65.20
2018-06-04T04:19:23.393Z,62.80
2018-06-04T04:20:23.335Z,66.90
2018-06-04T04:21:23.314Z,64.90
2018-06-04T04:22:23.298Z,66.20
2018-06-04T04:23:23.293Z,65.00
2018-06-04T04:24:23.272Z,61.10
2018-06-04T04:25:23.264Z,67.90
2018-06-04T04:26:23.244Z,64.80
2018-06-04T04:27:23.230Z,64.40
2018-06-04T04:28:23.220Z,63.70
2018-06-04T04:29:23.205Z,65.60
2018-06-04T04:30:23.187Z,60.70
2018-06-04T04:31:23.174Z,60.70
2018-06-04T04:32:23.162Z,58.70
2018-06-04T04:33:23.146Z,60.30
2018-06-04T04:34:23.146Z,63.40
2018-06-04T04:35:23.121Z,60.90
2018-06-04T04:36:23.107Z,60.80
2018-06-04T04:37:23.094Z,56.90
2018-06-04T04:38:23.087Z,59.10
2018-06-04T04:39:23.065Z,59.50
2018-06-04T04:40:23.052Z,60.50
2018-06-04T04:41:23.040Z,59.50
2018-06-04T04:42:23.024Z,60.00
2018-06-04T04:43:23.010Z,62.60
2018-06-04T04:44:22.996Z,61.70
2018-06-04T04:45:22.990Z,62.90
2018-06-04T04:46:25.592Z,63.00
2018-06-04T04:47:22.956Z,59.60
2018-06-04T04:48:22.941Z,58.80
2018-06-04T04:49:22.928Z,61.70
2018-06-04T04:50:22.914Z,58.10
2018-06-04T04:51:22.901Z,63.20
2018-06-04T04:52:22.887Z,62.00
2018-06-04T04:53:22.875Z,59.30
2018-06-04T04:54:22.859Z,61.90
2018-06-04T04:55:22.846Z,62.50
2018-06-04T04:56:24.250Z,61.20
2018-06-04T04:57:22.819Z,60.80
2018-06-04T04:58:22.806Z,60.60
2018-06-04T05:00:53.112Z,59.80
2018-06-04T05:02:54.775Z,61.40
2018-06-04T05:03:34.536Z,60.60
2018-06-04T05:04:37.153Z,58.90
2018-06-04T05:05:34.509Z,57.20
2018-06-04T05:06:34.493Z,58.80
2018-06-04T05:07:38.113Z,58.50
2018-06-04T05:09:18.742Z,55.00
2018-06-04T05:10:18.728Z,55.20
2018-06-04T05:11:18.714Z,60.70
2018-06-04T05:12:19.019Z,59.60
2018-06-04T05:13:18.687Z,60.10
2018-06-04T05:14:18.674Z,61.90
2018-06-04T05:15:18.659Z,60.90
2018-06-04T05:17:02.971Z,64.00
2018-06-04T05:18:02.957Z,64.80
2018-06-04T05:19:02.946Z,60.90
2018-06-04T05:20:02.936Z,60.30
2018-06-04T05:21:02.932Z,58.60
2018-06-04T05:22:03.320Z,56.70
2018-06-04T05:23:02.892Z,59.30
2018-06-04T05:27:49.195Z,60.70
2018-06-04T05:28:49.181Z,59.30
2018-06-04T05:29:49.176Z,58.20
2018-06-04T05:30:52.182Z,58.00
2018-06-04T05:31:49.791Z,57.50
2018-06-04T05:33:22.344Z,57.30
2018-06-04T05:36:02.389Z,59.10
2018-06-04T05:37:03.239Z,58.30
2018-06-04T05:38:02.371Z,53.90
2018-06-04T05:39:02.361Z,57.60
2018-06-04T05:40:02.336Z,54.40
2018-06-04T05:41:35.539Z,50.60
2018-06-04T05:42:02.317Z,53.80
2018-06-04T05:43:02.295Z,49.30
2018-06-04T05:44:02.285Z,49.70
2018-06-04T05:45:02.275Z,47.90
2018-06-04T05:46:02.270Z,48.70
2018-06-04T05:47:02.253Z,42.80
2018-06-04T05:48:02.239Z,50.30
2018-06-04T05:49:02.234Z,46.00
2018-06-04T05:50:02.236Z,44.90
2018-06-04T05:51:02.210Z,45.80
2018-06-04T05:52:02.195Z,47.70
2018-06-04T05:53:02.185Z,43.40
2018-06-04T05:54:02.184Z,48.60
2018-06-04T05:55:02.166Z,44.30
2018-06-04T05:56:02.167Z,44.10
2018-06-04T05:57:02.151Z,41.70
2018-06-04T05:58:02.151Z,42.70
2018-06-04T05:59:02.133Z,44.40
2018-06-04T06:00:02.125Z,44.20
2018-06-04T06:01:02.135Z,46.80
2018-06-04T06:02:02.111Z,46.60
2018-06-04T06:03:02.111Z,43.90
2018-06-04T06:04:02.097Z,41.50
2018-06-04T06:05:02.092Z,42.90
2018-06-04T06:06:02.089Z,41.00
2018-06-04T06:07:02.078Z,41.10
2018-06-04T06:08:02.236Z,40.50
2018-06-04T06:09:02.066Z,38.30
2018-06-04T06:10:02.060Z,38.20
2018-06-04T06:11:02.055Z,38.80
2018-06-04T06:12:02.051Z,39.80
2018-06-04T06:13:02.051Z,41.60
2018-06-04T06:14:02.042Z,43.60
2018-06-04T06:15:02.044Z,40.00
2018-06-04T06:16:02.041Z,40.90
2018-06-04T06:17:02.034Z,38.40
2018-06-04T06:18:02.035Z,39.60
2018-06-04T06:19:02.023Z,37.70
2018-06-04T06:20:02.020Z,40.20
2018-06-04T06:21:02.015Z,39.00
2018-06-04T06:22:02.017Z,35.80
2018-06-04T06:23:02.009Z,36.30
2018-06-04T06:24:02.005Z,41.60
2018-06-04T06:25:02.019Z,38.90
2018-06-04T06:26:02.001Z,36.00
2018-06-04T06:27:02.009Z,36.10
2018-06-04T06:28:01.997Z,37.60
2018-06-04T06:29:01.994Z,37.60
2018-06-04T06:30:01.992Z,41.40
2018-06-04T06:31:01.988Z,38.40
2018-06-04T06:32:01.994Z,38.00
2018-06-04T06:33:01.991Z,40.60
2018-06-04T06:34:01.985Z,38.30
2018-06-04T06:35:01.983Z,33.70
2018-06-04T06:36:01.988Z,36.60
2018-06-04T06:37:01.980Z,33.40
2018-06-04T06:38:01.987Z,36.40
2018-06-04T06:39:01.980Z,38.10
2018-06-04T06:40:01.980Z,43.90
2018-06-04T06:41:01.978Z,45.70
2018-06-04T06:42:01.978Z,45.90
2018-06-04T06:43:01.987Z,47.10
2018-06-04T06:44:01.981Z,44.50
2018-06-04T06:45:01.980Z,45.00
2018-06-04T06:46:01.981Z,42.20
2018-06-04T06:47:02.007Z,38.60
2018-06-04T06:48:01.990Z,43.00
2018-06-04T06:49:01.976Z,39.40
2018-06-04T06:50:01.991Z,41.40
2018-06-04T06:51:01.979Z,37.10
2018-06-04T06:52:01.979Z,37.80
2018-06-04T06:53:01.986Z,38.00
2018-06-04T06:54:01.980Z,39.90
2018-06-04T06:55:01.987Z,40.00
2018-06-04T06:56:01.983Z,43.00
2018-06-04T06:57:01.982Z,39.60
2018-06-04T06:58:01.982Z,37.20
2018-06-04T06:59:02.083Z,43.00
2018-06-04T07:00:01.983Z,39.90
2018-06-04T07:01:01.988Z,38.70
2018-06-04T07:02:02.035Z,38.60
2018-06-04T07:03:01.991Z,40.80
2018-06-04T07:04:01.997Z,37.10
2018-06-04T07:05:01.991Z,36.80
2018-06-04T07:06:01.995Z,36.90
2018-06-04T07:07:01.993Z,39.20
2018-06-04T07:08:02.000Z,36.10
2018-06-04T07:09:01.997Z,37.90
2018-06-04T07:10:01.997Z,38.40
2018-06-04T07:11:02.001Z,38.40
2018-06-04T07:12:02.000Z,37.80
2018-06-04T07:13:02.004Z,42.10
2018-06-04T07:14:02.002Z,38.80
2018-06-04T07:15:02.006Z,37.90
2018-06-04T07:16:02.006Z,39.70
2018-06-04T07:17:02.010Z,37.10
2018-06-04T07:18:02.016Z,36.30
2018-06-04T07:19:02.018Z,40.90
2018-06-04T07:20:02.014Z,43.30
2018-06-04T07:21:02.014Z,39.50
2018-06-04T07:22:02.020Z,39.70
2018-06-04T07:23:02.016Z,42.70
2018-06-04T07:24:02.018Z,42.40
2018-06-04T07:25:02.074Z,39.50
2018-06-04T07:26:02.025Z,37.60
2018-06-04T07:27:02.032Z,40.40
2018-06-04T07:28:02.031Z,39.70
2018-06-04T07:29:02.032Z,41.90
2018-06-04T07:30:02.032Z,45.20
2018-06-04T07:31:02.033Z,47.30
2018-06-04T07:32:02.036Z,39.30
2018-06-04T07:33:02.037Z,36.50
2018-06-04T07:34:02.041Z,40.70
2018-06-04T07:35:02.038Z,40.20
2018-06-04T07:36:02.041Z,41.40
2018-06-04T07:37:02.063Z,42.80
2018-06-04T07:38:02.048Z,41.10
2018-06-04T07:39:02.041Z,41.60
2018-06-04T07:40:02.050Z,44.00
2018-06-04T07:41:02.102Z,40.70
2018-06-04T07:42:02.045Z,41.40
2018-06-04T07:43:02.053Z,37.00
2018-06-04T07:44:02.056Z,46.20
2018-06-04T07:45:02.040Z,61.40
2018-06-04T07:46:02.042Z,47.80
2018-06-04T07:47:02.038Z,45.20
2018-06-04T07:48:02.038Z,44.70
2018-06-04T07:49:02.033Z,41.80
2018-06-04T07:50:02.038Z,44.80
2018-06-04T07:51:02.031Z,43.10
2018-06-04T07:52:02.034Z,40.50
2018-06-04T07:53:02.031Z,45.00
2018-06-04T07:54:02.024Z,46.70
2018-06-04T07:55:02.022Z,47.10
2018-06-04T07:56:02.016Z,44.60
2018-06-04T07:57:02.015Z,43.30
2018-06-04T07:58:02.011Z,41.10
2018-06-04T07:59:02.015Z,43.50
2018-06-04T08:00:02.004Z,42.00
2018-06-04T08:01:02.003Z,48.20
2018-06-04T08:02:01.996Z,43.80
2018-06-04T08:03:01.992Z,45.00
2018-06-04T08:04:01.989Z,48.00
2018-06-04T08:05:01.990Z,45.10
2018-06-04T08:06:01.989Z,46.70
2018-06-04T08:07:01.977Z,49.20
2018-06-04T08:08:01.972Z,45.60
2018-06-04T08:09:01.970Z,46.10
2018-06-04T08:10:02.037Z,47.80
2018-06-04T08:11:01.959Z,66.70
2018-06-04T08:12:01.955Z,53.00
2018-06-04T08:13:01.951Z,50.90
2018-06-04T08:14:01.948Z,52.90
2018-06-04T08:15:01.943Z,56.60
2018-06-04T08:16:01.937Z,52.80
2018-06-04T08:17:01.933Z,49.50
2018-06-04T08:18:01.979Z,46.30
2018-06-04T08:19:01.932Z,50.00
2018-06-04T08:20:01.922Z,46.70
2018-06-04T08:21:01.916Z,50.50
2018-06-04T08:22:01.919Z,41.90
2018-06-04T08:23:01.905Z,44.10
2018-06-04T08:24:01.939Z,48.50
2018-06-04T08:25:01.898Z,46.30
2018-06-04T08:26:01.896Z,42.80
2018-06-04T08:27:01.886Z,43.70
2018-06-04T08:28:01.880Z,40.90
2018-06-04T08:29:01.873Z,42.20
2018-06-04T08:30:01.870Z,40.20
2018-06-04T08:31:01.866Z,45.40
2018-06-04T08:32:01.860Z,42.90
2018-06-04T08:33:01.859Z,42.60
2018-06-04T08:34:01.850Z,41.50
2018-06-04T08:35:01.840Z,45.70
2018-06-04T08:36:01.836Z,40.70
2018-06-04T08:37:01.829Z,42.80
2018-06-04T08:38:01.832Z,46.90
2018-06-04T08:39:01.818Z,42.40
2018-06-04T08:40:01.819Z,47.00
2018-06-04T08:41:01.807Z,44.00
2018-06-04T08:42:01.799Z,42.40
2018-06-04T08:43:01.812Z,42.00
2018-06-04T08:44:01.790Z,47.40
2018-06-04T08:45:01.782Z,43.80
2018-06-04T08:46:01.778Z,44.10
2018-06-04T08:47:01.777Z,41.30
2018-06-04T08:48:01.768Z,44.80
2018-06-04T08:49:01.771Z,39.90
2018-06-04T08:50:01.765Z,40.30
2018-06-04T08:51:01.794Z,39.00
2018-06-04T08:52:01.740Z,36.30
2018-06-04T08:53:01.743Z,40.00
2018-06-04T08:54:01.730Z,42.70
2018-06-04T08:55:01.739Z,45.60
2018-06-04T08:56:01.720Z,41.10
2018-06-04T08:57:01.715Z,37.30
2018-06-04T08:58:01.706Z,35.80
2018-06-04T08:59:01.849Z,35.80
2018-06-04T09:00:01.698Z,35.70
2018-06-04T09:01:01.690Z,37.40
2018-06-04T09:02:01.736Z,34.20
2018-06-04T09:03:01.677Z,38.60
2018-06-04T09:04:01.671Z,34.60
2018-06-04T09:05:01.669Z,35.00
2018-06-04T09:06:01.661Z,34.10
2018-06-04T09:07:01.658Z,34.80
2018-06-04T09:08:01.653Z,34.50
2018-06-04T09:09:01.649Z,34.40
2018-06-04T09:10:01.644Z,36.00
2018-06-04T09:11:01.639Z,37.60
2018-06-04T09:12:01.636Z,37.80
2018-06-04T09:13:01.646Z,42.90
2018-06-04T09:14:01.631Z,39.00
2018-06-04T09:15:01.626Z,39.30
2018-06-04T09:16:01.618Z,37.20
2018-06-04T09:17:01.615Z,39.90
2018-06-04T09:18:01.615Z,40.60
2018-06-04T09:19:01.609Z,42.70
2018-06-04T09:20:01.605Z,37.10
2018-06-04T09:21:01.602Z,37.60
2018-06-04T09:22:01.666Z,41.20
2018-06-04T09:23:01.597Z,40.60
2018-06-04T09:24:01.602Z,39.30
2018-06-04T09:25:01.596Z,38.60
2018-06-04T09:26:01.599Z,33.70
2018-06-04T09:27:01.588Z,34.00
2018-06-04T09:28:01.603Z,38.40
2018-06-04T09:29:01.585Z,35.80
2018-06-04T09:30:01.582Z,39.60
2018-06-04T09:31:01.581Z,39.80
2018-06-04T09:32:01.583Z,34.80
2018-06-04T09:33:01.572Z,38.80
2018-06-04T09:34:01.570Z,33.10
2018-06-04T09:35:01.567Z,40.50
2018-06-04T09:36:01.563Z,36.30
2018-06-04T09:37:01.561Z,37.10
2018-06-04T09:38:01.557Z,33.90
2018-06-04T09:39:01.556Z,33.70
2018-06-04T09:40:01.564Z,31.00
2018-06-04T09:41:01.550Z,35.20
2018-06-04T09:42:01.548Z,31.10
2018-06-04T09:43:01.546Z,32.00
2018-06-04T09:44:01.542Z,29.00
2018-06-04T09:45:01.545Z,33.30
2018-06-04T09:46:01.543Z,34.30
2018-06-04T09:47:01.545Z,32.20
2018-06-04T09:48:01.543Z,30.00
2018-06-04T09:49:01.541Z,33.60
2018-06-04T09:50:01.531Z,27.10
2018-06-04T09:51:01.529Z,28.80
2018-06-04T09:52:01.526Z,32.40
2018-06-04T09:53:01.524Z,27.90
2018-06-04T09:54:01.580Z,29.10
2018-06-04T09:55:01.520Z,27.10
2018-06-04T09:56:01.518Z,28.40
2018-06-04T09:57:01.522Z,28.50
2018-06-04T09:58:01.515Z,28.30
2018-06-04T09:59:01.508Z,25.20
2018-06-04T10:00:01.520Z,25.50
2018-06-04T10:01:01.507Z,28.20
2018-06-04T10:02:01.503Z,28.50
2018-06-04T10:03:01.521Z,26.00
2018-06-04T10:04:01.494Z,29.60
2018-06-04T10:05:01.490Z,30.70
2018-06-04T10:06:01.490Z,26.50
2018-06-04T10:07:01.481Z,27.20
2018-06-04T10:08:01.476Z,32.80
2018-06-04T10:09:01.479Z,34.60
2018-06-04T10:10:01.470Z,32.50
2018-06-04T10:11:01.463Z,40.60
2018-06-04T10:12:01.460Z,36.10
2018-06-04T10:13:01.464Z,37.30
2018-06-04T10:14:01.453Z,38.80
2018-06-04T10:15:01.447Z,37.50
2018-06-04T10:16:01.448Z,41.70
2018-06-04T10:17:01.438Z,42.40
2018-06-04T10:18:01.432Z,40.00
2018-06-04T10:19:01.433Z,39.60
2018-06-04T10:20:01.429Z,38.70
2018-06-04T10:21:01.416Z,39.30
2018-06-04T10:22:01.411Z,40.00
2018-06-04T10:23:01.405Z,39.50
2018-06-04T10:24:01.408Z,40.20
2018-06-04T10:25:01.397Z,38.50
2018-06-04T10:26:01.399Z,41.30
2018-06-04T10:27:01.389Z,38.90
2018-06-04T10:28:01.395Z,41.30
2018-06-04T10:29:01.392Z,41.00
2018-06-04T10:30:01.381Z,42.20
2018-06-04T10:31:01.376Z,39.90
2018-06-04T10:32:01.375Z,38.40
2018-06-04T10:33:01.374Z,39.60
2018-06-04T10:34:01.369Z,43.20
2018-06-04T10:35:01.371Z,39.50
2018-06-04T10:36:01.374Z,44.80
2018-06-04T10:37:01.366Z,40.20
2018-06-04T10:38:01.364Z,44.20
2018-06-04T10:39:01.353Z,44.60
2018-06-04T10:40:01.349Z,42.70
2018-06-04T10:41:01.346Z,42.30
2018-06-04T10:42:01.444Z,45.00
2018-06-04T10:43:01.340Z,39.50
2018-06-04T10:44:01.337Z,41.60
2018-06-04T10:45:01.334Z,39.10
2018-06-04T10:46:01.333Z,41.70
2018-06-04T10:47:01.337Z,40.60
2018-06-04T10:48:01.337Z,39.60
2018-06-04T10:49:01.327Z,38.30
2018-06-04T10:50:01.329Z,39.10
2018-06-04T10:51:01.331Z,40.40
2018-06-04T10:52:01.325Z,40.60
2018-06-04T10:53:01.332Z,38.50
2018-06-04T10:54:01.323Z,37.80
2018-06-04T10:55:01.322Z,39.20
2018-06-04T10:56:01.322Z,37.20
2018-06-04T10:57:01.326Z,35.70
2018-06-04T10:58:01.323Z,34.10
2018-06-04T10:59:01.324Z,34.50
2018-06-04T11:00:01.323Z,33.80
2018-06-04T11:01:01.336Z,35.10
2018-06-04T11:02:01.327Z,32.70
2018-06-04T11:03:01.338Z,33.30
2018-06-04T11:04:01.331Z,36.80
2018-06-04T11:05:01.330Z,35.70
2018-06-04T11:06:01.331Z,32.70
2018-06-04T11:07:01.340Z,35.10
2018-06-04T11:08:01.341Z,33.90
2018-06-04T11:09:01.335Z,38.40
2018-06-04T11:10:01.336Z,38.30
2018-06-04T11:11:01.346Z,34.80
2018-06-04T11:12:01.338Z,36.10
2018-06-04T11:13:01.350Z,34.50
2018-06-04T11:14:01.346Z,37.90
2018-06-04T11:15:01.341Z,35.30
2018-06-04T11:16:01.344Z,36.20
2018-06-04T11:17:01.345Z,38.20
2018-06-04T11:18:01.346Z,38.50
2018-06-04T11:19:01.354Z,38.60
2018-06-04T11:20:01.356Z,35.60
2018-06-04T11:21:01.359Z,34.80
2018-06-04T11:22:01.352Z,35.40
2018-06-04T11:23:01.406Z,38.10
2018-06-04T11:24:01.356Z,37.30
2018-06-04T11:25:01.362Z,37.40
2018-06-04T11:26:01.395Z,36.50
2018-06-04T11:27:01.362Z,36.00
2018-06-04T11:28:01.363Z,36.10
2018-06-04T11:29:01.369Z,35.30
2018-06-04T11:30:01.371Z,33.20
2018-06-04T11:31:01.373Z,33.60
2018-06-04T11:32:01.375Z,30.00
2018-06-04T11:33:01.381Z,34.20
2018-06-04T11:34:01.379Z,33.50
2018-06-04T11:35:01.385Z,33.80
2018-06-04T11:36:01.380Z,38.30
2018-06-04T11:37:01.378Z,36.50
2018-06-04T11:38:01.386Z,33.30
2018-06-04T11:39:01.398Z,40.40
2018-06-04T11:40:01.380Z,33.00
2018-06-04T11:41:01.380Z,38.10
2018-06-04T11:42:01.382Z,34.70
2018-06-04T11:43:01.384Z,38.70
2018-06-04T11:44:01.381Z,33.80
2018-06-04T11:45:01.380Z,36.50
2018-06-04T11:46:01.382Z,35.80
2018-06-04T11:47:01.379Z,34.90
2018-06-04T11:48:01.377Z,35.60
2018-06-04T11:49:01.376Z,34.30
2018-06-04T11:50:01.375Z,34.10
2018-06-04T11:51:01.378Z,37.20
2018-06-04T11:52:01.370Z,35.30
2018-06-04T11:53:01.373Z,35.80
2018-06-04T11:54:01.368Z,36.80
2018-06-04T11:55:01.364Z,48.00
2018-06-04T11:56:01.363Z,34.10
2018-06-04T11:57:01.359Z,34.30
2018-06-04T11:58:01.356Z,33.50
2018-06-04T11:59:01.359Z,35.70
2018-06-04T12:00:01.355Z,33.20
2018-06-04T12:01:01.346Z,37.40
2018-06-04T12:02:01.344Z,36.10
2018-06-04T12:03:01.340Z,36.60
2018-06-04T12:04:01.337Z,36.60
2018-06-04T12:05:01.342Z,36.50
2018-06-04T12:06:01.338Z,38.90
2018-06-04T12:07:01.333Z,34.00
2018-06-04T12:08:01.334Z,35.30
2018-06-04T12:09:01.318Z,33.90
2018-06-04T12:10:01.318Z,37.40
2018-06-04T12:11:01.315Z,37.80
2018-06-04T12:12:01.305Z,36.10
2018-06-04T12:13:01.300Z,34.80
2018-06-04T12:14:01.305Z,33.20
2018-06-04T12:15:01.292Z,36.90
2018-06-04T12:16:01.286Z,41.90
2018-06-04T12:17:01.282Z,38.00
2018-06-04T12:18:01.277Z,39.20
2018-06-04T12:19:01.271Z,37.60
2018-06-04T12:20:01.269Z,39.60
2018-06-04T12:21:01.263Z,40.20
2018-06-04T12:22:01.263Z,39.10
2018-06-04T12:23:01.860Z,35.40
2018-06-04T12:24:01.252Z,37.20
2018-06-04T12:25:01.241Z,38.70
2018-06-04T12:26:01.241Z,38.80
2018-06-04T12:27:01.235Z,36.70
2018-06-04T12:28:01.233Z,37.60
2018-06-04T12:29:01.224Z,38.70
2018-06-04T12:30:01.222Z,36.60
2018-06-04T12:31:01.212Z,33.70
2018-06-04T12:32:01.207Z,42.70
2018-06-04T12:33:01.212Z,34.40
2018-06-04T12:34:01.191Z,36.30
2018-06-04T12:35:01.185Z,32.40
2018-06-04T12:36:01.179Z,34.90
2018-06-04T12:37:01.182Z,36.50
2018-06-04T12:38:01.169Z,36.40
2018-06-04T12:39:01.160Z,36.20
2018-06-04T12:40:01.158Z,36.40
2018-06-04T12:41:01.151Z,36.30
2018-06-04T12:42:01.144Z,37.40
2018-06-04T12:43:01.135Z,38.10
2018-06-04T12:44:01.141Z,35.40
2018-06-04T12:45:01.133Z,35.80
2018-06-04T12:46:01.125Z,42.20
2018-06-04T12:47:01.111Z,35.70
2018-06-04T12:48:01.142Z,40.90
2018-06-04T12:49:01.100Z,34.80
2018-06-04T12:50:01.097Z,35.60
2018-06-04T12:51:01.092Z,35.50
2018-06-04T12:52:01.081Z,35.30
2018-06-04T12:53:01.084Z,34.50
2018-06-04T12:54:01.068Z,36.50
2018-06-04T12:55:01.063Z,33.40
2018-06-04T12:56:01.055Z,34.10
2018-06-04T12:57:01.058Z,32.10
2018-06-04T12:58:01.053Z,34.10
2018-06-04T12:59:01.040Z,34.60
2018-06-04T13:00:01.035Z,37.20
2018-06-04T13:01:01.023Z,29.40
2018-06-04T13:02:01.023Z,30.40
2018-06-04T13:03:01.007Z,30.90
2018-06-04T13:04:01.015Z,32.90
2018-06-04T13:05:00.997Z,37.00
2018-06-04T13:06:00.990Z,32.30
2018-06-04T13:07:00.981Z,33.40
2018-06-04T13:08:00.985Z,33.80
2018-06-04T13:09:00.972Z,35.60
2018-06-04T13:10:00.962Z,35.80
2018-06-04T13:11:00.954Z,35.30
2018-06-04T13:12:00.948Z,35.40
2018-06-04T13:13:00.953Z,35.10
2018-06-04T13:14:00.933Z,37.10
2018-06-04T13:15:00.924Z,39.70
2018-06-04T13:16:00.917Z,34.90
2018-06-04T13:17:00.911Z,36.80